Time;durP1;ratioP1;P1;durP2;ratioP2;P2;SDS_P1;SDS_P2;PMS_P1;PMS_P2;Temp;Humidity;BMP_temperature;BMP_pressure;BME280_temperature;BME280_humidity;BME280_pressure;Samples;Min_cycle;Max_cycle;Signal;HPM_P1;HPM_P2
2021/12/26 00:00:46;;;;;;;7.05;4.43;;;-5.70;99.90;;;;;;4870461;29;20053;-58
2021/12/26 00:03:13;;;;;;;8.15;4.65;;;-5.70;99.90;;;;;;4881866;29;20393;-58
2021/12/26 00:05:40;;;;;;;7.28;4.10;;;-5.70;99.90;;;;;;4868021;29;20055;-58
2021/12/26 00:08:06;;;;;;;7.15;4.28;;;-5.70;99.90;;;;;;4882199;29;20052;-58
2021/12/26 00:10:32;;;;;;;6.97;4.40;;;-5.70;99.90;;;;;;4886233;29;20048;-59
2021/12/26 00:12:58;;;;;;;11.88;4.70;;;-5.80;99.90;;;;;;4882667;29;20068;-58
2021/12/26 00:15:24;;;;;;;8.63;4.97;;;-5.80;99.90;;;;;;4864760;29;20097;-58
2021/12/26 00:17:50;;;;;;;8.38;4.47;;;-5.80;99.90;;;;;;4881293;29;20048;-57
2021/12/26 00:20:18;;;;;;;7.70;4.40;;;-5.70;99.90;;;;;;4882613;29;20336;-59
2021/12/26 00:22:46;;;;;;;9.80;4.10;;;-5.80;99.90;;;;;;4880300;29;20080;-59
2021/12/26 00:25:13;;;;;;;9.25;4.57;;;-5.80;99.90;;;;;;4881871;29;20048;-58
2021/12/26 00:27:40;;;;;;;6.35;4.03;;;-5.80;99.90;;;;;;4870404;29;20553;-58
2021/12/26 00:30:10;;;;;;;7.53;4.05;;;-5.80;99.90;;;;;;4882071;29;20136;-58
2021/12/26 00:32:37;;;;;;;11.00;4.00;;;-5.80;99.90;;;;;;4884335;29;20075;-59
2021/12/26 00:35:04;;;;;;;7.88;4.13;;;-5.80;99.90;;;;;;4885845;29;20643;-58
2021/12/26 00:37:29;;;;;;;7.47;4.00;;;-5.80;99.90;;;;;;4870235;29;20072;-59
2021/12/26 00:39:55;;;;;;;9.00;4.35;;;-5.90;99.90;;;;;;4869308;29;20176;-59
2021/12/26 00:42:21;;;;;;;8.00;4.10;;;-5.90;99.90;;;;;;4883641;29;20045;-58
2021/12/26 00:44:47;;;;;;;6.10;3.65;;;-5.90;99.90;;;;;;4884398;29;20504;-59
2021/12/26 00:47:13;;;;;;;10.35;4.28;;;-5.90;99.90;;;;;;4884118;29;20056;-58
2021/12/26 00:49:39;;;;;;;6.63;3.80;;;-5.90;99.90;;;;;;4885145;29;20473;-58
2021/12/26 00:52:06;;;;;;;7.63;4.30;;;-5.80;99.90;;;;;;4882176;29;20053;-59
2021/12/26 00:54:32;;;;;;;7.10;3.95;;;-5.80;99.90;;;;;;4885116;29;20124;-59
2021/12/26 00:56:59;;;;;;;7.68;3.47;;;-5.90;99.90;;;;;;4864695;29;20044;-59
2021/12/26 00:59:26;;;;;;;7.22;4.25;;;-5.90;99.90;;;;;;4884145;29;20096;-59
2021/12/26 01:01:53;;;;;;;7.95;3.70;;;-5.90;99.90;;;;;;4882090;29;20056;-58
2021/12/26 01:04:20;;;;;;;9.38;4.00;;;-5.90;99.90;;;;;;4883424;29;20572;-58
2021/12/26 01:06:46;;;;;;;6.95;3.75;;;-5.90;99.90;;;;;;4886868;29;20180;-59
2021/12/26 01:09:16;;;;;;;6.82;4.10;;;-6.00;99.90;;;;;;4883863;29;20048;-59
2021/12/26 01:11:48;;;;;;;7.07;3.95;;;-6.00;99.90;;;;;;4884809;29;20049;-58
2021/12/26 01:14:16;;;;;;;7.57;4.13;;;-6.00;99.90;;;;;;4865851;29;20128;-58
2021/12/26 01:16:44;;;;;;;7.57;4.13;;;-6.00;99.90;;;;;;4880596;29;20481;-58
2021/12/26 01:19:14;;;;;;;8.93;3.90;;;-6.10;99.90;;;;;;4884613;29;20049;-57
2021/12/26 01:21:41;;;;;;;6.15;3.83;;;-6.10;99.90;;;;;;4883437;29;20163;-59
2021/12/26 01:24:10;;;;;;;5.90;3.25;;;-6.10;99.90;;;;;;4865972;29;20463;-58
2021/12/26 01:26:37;;;;;;;8.98;3.58;;;-6.10;99.90;;;;;;4883172;29;20048;-58
2021/12/26 01:29:05;;;;;;;8.50;3.78;;;-6.10;99.90;;;;;;4881718;29;20179;-58
2021/12/26 01:31:31;;;;;;;6.10;3.45;;;-6.10;99.90;;;;;;4885614;29;20436;-59
2021/12/26 01:34:00;;;;;;;6.78;3.20;;;-6.10;99.90;;;;;;4880741;29;21270;-58
2021/12/26 01:36:28;;;;;;;6.25;3.50;;;-6.10;99.90;;;;;;4869929;29;20048;-58
2021/12/26 01:38:56;;;;;;;5.05;3.08;;;-6.10;99.90;;;;;;4885452;29;20104;-59
2021/12/26 01:41:23;;;;;;;6.88;3.38;;;-6.10;99.90;;;;;;4884873;29;20057;-59
2021/12/26 01:43:52;;;;;;;6.90;3.05;;;-6.10;99.90;;;;;;4883963;29;20118;-57
2021/12/26 01:46:18;;;;;;;5.75;3.13;;;-6.10;99.90;;;;;;4868715;29;20445;-59
2021/12/26 01:48:44;;;;;;;5.15;3.40;;;-6.00;99.90;;;;;;4882535;29;20095;-59
2021/12/26 01:51:10;;;;;;;6.53;3.10;;;-6.00;99.90;;;;;;4884028;29;20091;-58
2021/12/26 01:53:38;;;;;;;5.13;3.20;;;-5.90;99.90;;;;;;4882869;29;20048;-59
2021/12/26 01:56:11;;;;;;;5.90;3.63;;;-5.90;99.90;;;;;;4883360;29;20127;-59
2021/12/26 01:58:38;;;;;;;4.85;3.30;;;-5.90;99.90;;;;;;4884135;29;20052;-58
2021/12/26 02:01:10;;;;;;;5.45;3.13;;;-5.70;99.90;;;;;;4885285;29;20135;-59
2021/12/26 02:03:38;;;;;;;6.78;3.88;;;-5.90;99.90;;;;;;4879835;29;20171;-57
2021/12/26 02:06:06;;;;;;;7.03;3.65;;;-5.90;99.90;;;;;;4882045;29;20090;-58
2021/12/26 02:08:32;;;;;;;5.50;3.30;;;-5.90;99.90;;;;;;4868134;29;20044;-56
2021/12/26 02:11:02;;;;;;;8.73;3.45;;;-5.90;99.90;;;;;;4885579;29;20073;-59
2021/12/26 02:13:29;;;;;;;6.93;3.33;;;-5.90;99.90;;;;;;4872693;29;20057;-59
2021/12/26 02:15:56;;;;;;;5.40;3.58;;;-5.90;99.90;;;;;;4876897;29;20044;-57
2021/12/26 02:18:22;;;;;;;6.00;3.40;;;-5.90;99.90;;;;;;4884449;29;20044;-58
2021/12/26 02:23:47;;;;;;;4.30;2.97;;;-5.90;99.90;;;;;;4861785;29;20056;-58
2021/12/26 02:28:58;;;;;;;4.03;2.65;;;-6.00;99.90;;;;;;4885510;29;20040;-59
2021/12/26 02:31:24;;;;;;;5.90;3.33;;;-6.00;99.90;;;;;;4885718;29;20581;-59
2021/12/26 02:33:50;;;;;;;6.68;3.33;;;-6.00;99.90;;;;;;4884742;29;20039;-58
2021/12/26 02:36:15;;;;;;;6.00;2.70;;;-6.00;99.90;;;;;;4887560;29;20044;-58
2021/12/26 02:38:41;;;;;;;7.43;3.20;;;-6.00;99.90;;;;;;4886569;29;20051;-57
2021/12/26 02:41:07;;;;;;;4.78;2.70;;;-6.00;99.90;;;;;;4887249;29;20506;-59
2021/12/26 02:43:34;;;;;;;4.82;3.00;;;-6.00;99.90;;;;;;4884655;29;20056;-59
2021/12/26 02:46:05;;;;;;;6.85;2.88;;;-6.00;99.90;;;;;;4885227;29;20152;-58
2021/12/26 02:48:31;;;;;;;6.63;2.90;;;-6.00;99.90;;;;;;4885593;29;20060;-59
2021/12/26 02:50:57;;;;;;;3.28;2.40;;;-6.00;99.90;;;;;;4885052;29;20571;-59
2021/12/26 02:53:24;;;;;;;6.93;2.83;;;-6.00;99.90;;;;;;4886031;29;20052;-57
2021/12/26 02:55:52;;;;;;;5.07;2.90;;;-6.00;99.90;;;;;;4884668;29;20131;-57
2021/12/26 02:58:18;;;;;;;4.82;3.03;;;-6.00;99.90;;;;;;4865754;29;20119;-56
2021/12/26 03:01:09;;;;;;;5.88;3.20;;;-6.00;99.90;;;;;;4885907;29;20049;-59
2021/12/26 03:03:35;;;;;;;4.38;3.08;;;-6.00;99.90;;;;;;4884306;29;20480;-59
2021/12/26 03:06:11;;;;;;;4.22;3.00;;;-6.00;99.90;;;;;;4869798;29;20052;-59
2021/12/26 03:08:37;;;;;;;3.95;2.80;;;-6.00;99.90;;;;;;4885934;29;20841;-60
2021/12/26 03:11:03;;;;;;;4.70;2.60;;;-6.00;99.90;;;;;;4868662;29;20053;-59
2021/12/26 03:13:29;;;;;;;5.60;3.13;;;-6.00;99.90;;;;;;4885228;29;20060;-58
2021/12/26 03:15:55;;;;;;;4.93;2.50;;;-6.00;99.90;;;;;;4886904;29;20076;-58
2021/12/26 03:18:21;;;;;;;3.85;2.75;;;-6.00;99.90;;;;;;4878605;29;20044;-57
2021/12/26 03:20:49;;;;;;;5.22;2.75;;;-6.00;99.90;;;;;;4885275;29;20061;-58
2021/12/26 03:23:19;;;;;;;4.68;2.88;;;-6.00;99.90;;;;;;4885799;29;20255;-57
2021/12/26 03:25:46;;;;;;;4.18;2.80;;;-6.00;99.90;;;;;;4869112;29;20059;-58
2021/12/26 03:28:12;;;;;;;3.88;2.63;;;-6.00;99.90;;;;;;4884648;29;20044;-58
2021/12/26 03:30:39;;;;;;;4.22;2.40;;;-6.10;99.90;;;;;;4886240;29;20059;-57
2021/12/26 03:33:08;;;;;;;4.03;2.70;;;-6.00;99.90;;;;;;4884025;29;20049;-58
2021/12/26 03:35:35;;;;;;;7.93;2.95;;;-6.00;99.90;;;;;;4870391;29;20065;-57
2021/12/26 03:38:04;;;;;;;4.07;2.50;;;-6.00;99.90;;;;;;4867723;29;20084;-58
2021/12/26 03:40:30;;;;;;;5.03;2.95;;;-6.00;99.90;;;;;;4888210;29;20457;-59
2021/12/26 03:42:56;;;;;;;4.45;2.90;;;-6.00;99.90;;;;;;4886478;29;20045;-57
2021/12/26 03:45:22;;;;;;;4.68;2.65;;;-6.00;99.90;;;;;;4886780;29;20131;-59
2021/12/26 03:47:50;;;;;;;3.72;2.30;;;-6.00;99.90;;;;;;4884002;29;20635;-59
2021/12/26 03:50:19;;;;;;;4.45;2.55;;;-6.00;99.90;;;;;;4884970;29;20057;-59
2021/12/26 03:52:54;;;;;;;5.55;2.50;;;-6.00;99.90;;;;;;4885175;29;20175;-57
2021/12/26 03:55:20;;;;;;;5.00;2.50;;;-6.00;99.90;;;;;;4887492;29;20123;-59
2021/12/26 03:57:46;;;;;;;5.68;2.67;;;-6.00;99.90;;;;;;4884772;29;20048;-58
2021/12/26 04:00:16;;;;;;;5.28;2.78;;;-6.00;99.90;;;;;;4886644;29;20049;-58
2021/12/26 04:02:45;;;;;;;5.32;2.50;;;-6.10;99.90;;;;;;4884007;29;20071;-58
2021/12/26 04:05:12;;;;;;;4.82;2.85;;;-6.10;99.90;;;;;;4884320;29;20056;-59
2021/12/26 04:07:38;;;;;;;6.05;2.97;;;-6.10;99.90;;;;;;4885530;29;20044;-56
2021/12/26 04:10:06;;;;;;;4.65;2.58;;;-6.10;99.90;;;;;;4886272;29;20040;-58
2021/12/26 04:12:36;;;;;;;5.47;2.95;;;-6.10;99.90;;;;;;4881668;29;20596;-59
2021/12/26 04:15:05;;;;;;;4.03;2.90;;;-6.00;99.90;;;;;;4882678;29;20135;-57
2021/12/26 04:17:31;;;;;;;5.72;2.92;;;-6.00;99.90;;;;;;4881483;29;20544;-58
2021/12/26 04:19:57;;;;;;;3.88;2.50;;;-6.00;99.90;;;;;;4883910;29;20054;-57
2021/12/26 04:22:23;;;;;;;4.90;2.90;;;-6.10;99.90;;;;;;4883475;29;20048;-58
2021/12/26 04:24:48;;;;;;;3.92;2.65;;;-6.10;99.90;;;;;;4885007;29;20135;-58
2021/12/26 04:27:14;;;;;;;3.90;2.55;;;-6.10;99.90;;;;;;4870428;29;20055;-58
2021/12/26 04:29:40;;;;;;;3.67;2.47;;;-6.10;99.90;;;;;;4870759;29;20048;-59
2021/12/26 04:32:06;;;;;;;5.10;2.88;;;-6.10;99.90;;;;;;4881720;29;20056;-56
2021/12/26 04:34:32;;;;;;;5.82;2.70;;;-6.10;99.90;;;;;;4880296;29;20531;-58
2021/12/26 04:36:58;;;;;;;4.57;2.90;;;-6.10;99.90;;;;;;4884839;29;20135;-58
2021/12/26 04:39:24;;;;;;;3.95;2.72;;;-6.10;99.90;;;;;;4885115;29;20496;-58
2021/12/26 04:41:50;;;;;;;5.82;2.60;;;-6.10;99.90;;;;;;4883993;29;20056;-57
2021/12/26 04:44:15;;;;;;;3.83;2.47;;;-6.10;99.80;;;;;;4882846;29;20072;-58
2021/12/26 04:46:41;;;;;;;5.38;2.72;;;-6.20;99.90;;;;;;4883095;29;20185;-59
2021/12/26 04:49:07;;;;;;;6.93;2.70;;;-6.20;99.90;;;;;;4882871;29;20112;-58
2021/12/26 04:51:33;;;;;;;5.90;2.80;;;-6.20;99.90;;;;;;4886119;29;20057;-59
2021/12/26 04:53:59;;;;;;;6.90;2.88;;;-6.20;99.90;;;;;;4882890;29;20045;-57
2021/12/26 04:56:25;;;;;;;4.07;2.70;;;-6.20;99.70;;;;;;4884446;29;20036;-58
2021/12/26 04:58:51;;;;;;;5.95;2.70;;;-6.20;99.60;;;;;;4883624;29;20055;-57
2021/12/26 05:01:17;;;;;;;5.18;2.72;;;-6.20;99.80;;;;;;4868075;29;20048;-58
2021/12/26 05:03:42;;;;;;;3.60;2.50;;;-6.20;99.70;;;;;;4882884;29;20049;-58
2021/12/26 05:06:08;;;;;;;4.63;2.67;;;-6.20;99.70;;;;;;4866403;29;20104;-58
2021/12/26 05:08:34;;;;;;;5.30;2.78;;;-6.20;99.80;;;;;;4884954;29;20052;-58
2021/12/26 05:11:01;;;;;;;5.60;2.70;;;-6.20;99.70;;;;;;4884543;29;20139;-58
2021/12/26 05:13:27;;;;;;;4.28;2.63;;;-6.30;99.60;;;;;;4881194;29;20521;-58
2021/12/26 05:15:53;;;;;;;3.42;2.60;;;-6.30;99.60;;;;;;4883120;29;20129;-56
2021/12/26 05:18:19;;;;;;;5.70;2.92;;;-6.30;99.50;;;;;;4882458;29;20088;-57
2021/12/26 05:20:45;;;;;;;3.75;2.60;;;-6.30;98.90;;;;;;4882595;29;20124;-58
2021/12/26 05:23:11;;;;;;;6.32;2.75;;;-6.20;99.20;;;;;;4883337;29;20147;-58
2021/12/26 05:25:37;;;;;;;4.32;2.80;;;-6.20;98.90;;;;;;4883331;29;20080;-57
2021/12/26 05:28:04;;;;;;;5.05;2.90;;;-6.20;99.00;;;;;;4883098;29;20045;-58
2021/12/26 05:30:30;;;;;;;3.85;2.85;;;-6.20;98.80;;;;;;4880666;29;20033;-56
2021/12/26 05:32:56;;;;;;;5.38;2.78;;;-6.20;98.70;;;;;;4882020;29;20053;-57
2021/12/26 05:35:22;;;;;;;4.00;2.67;;;-6.20;98.80;;;;;;4884094;29;20048;-58
2021/12/26 05:37:48;;;;;;;5.03;2.97;;;-6.20;98.50;;;;;;4883729;29;20048;-56
2021/12/26 05:40:15;;;;;;;3.05;2.58;;;-6.20;98.60;;;;;;4885042;29;20484;-57
2021/12/26 05:42:42;;;;;;;4.40;2.65;;;-6.10;98.30;;;;;;4883532;29;20057;-57
2021/12/26 05:45:09;;;;;;;4.57;2.72;;;-6.10;98.30;;;;;;4883063;29;20052;-58
2021/12/26 05:47:35;;;;;;;4.63;2.92;;;-6.20;98.30;;;;;;4872772;29;20514;-59
2021/12/26 05:50:02;;;;;;;6.43;2.60;;;-6.20;98.30;;;;;;4887568;29;20500;-58
2021/12/26 05:52:28;;;;;;;4.40;2.75;;;-6.20;98.20;;;;;;4884170;29;20564;-56
2021/12/26 05:54:54;;;;;;;5.10;2.63;;;-6.10;98.10;;;;;;4854722;29;20052;-59
2021/12/26 05:57:20;;;;;;;5.43;2.80;;;-6.20;98.20;;;;;;4874536;29;20453;-58
2021/12/26 05:59:46;;;;;;;3.92;2.60;;;-6.20;98.20;;;;;;4888480;29;20182;-58
2021/12/26 06:02:12;;;;;;;5.45;2.80;;;-6.20;98.20;;;;;;4866631;29;20057;-58
2021/12/26 06:04:39;;;;;;;4.47;2.83;;;-6.20;98.20;;;;;;4887112;29;20084;-58
2021/12/26 06:07:05;;;;;;;5.93;3.00;;;-6.20;98.20;;;;;;4885670;29;20135;-58
2021/12/26 06:09:31;;;;;;;4.65;2.88;;;-6.10;97.90;;;;;;4886830;29;20049;-58
2021/12/26 06:11:57;;;;;;;4.07;2.67;;;-6.20;97.90;;;;;;4886383;29;20060;-58
2021/12/26 06:14:23;;;;;;;4.18;2.95;;;-6.10;97.80;;;;;;4866654;29;20048;-58
2021/12/26 06:16:49;;;;;;;5.53;2.72;;;-6.10;97.80;;;;;;4885022;29;20041;-59
2021/12/26 06:19:15;;;;;;;5.53;2.88;;;-6.10;97.90;;;;;;4864594;29;20044;-57
2021/12/26 06:21:41;;;;;;;5.45;2.90;;;-6.10;97.80;;;;;;4887190;29;20098;-58
2021/12/26 06:24:08;;;;;;;5.45;2.63;;;-6.10;97.70;;;;;;4868354;29;20490;-58
2021/12/26 06:26:34;;;;;;;5.90;3.05;;;-6.10;97.70;;;;;;4873002;29;20466;-57
2021/12/26 06:29:00;;;;;;;7.00;3.28;;;-6.10;97.70;;;;;;4887459;29;20073;-57
2021/12/26 06:31:26;;;;;;;4.45;2.85;;;-6.10;97.90;;;;;;4870294;29;20089;-58
2021/12/26 06:33:52;;;;;;;4.95;3.00;;;-6.10;97.90;;;;;;4883944;29;20520;-57
2021/12/26 06:36:18;;;;;;;6.35;2.83;;;-6.10;97.90;;;;;;4888860;29;20449;-59
2021/12/26 06:38:45;;;;;;;4.88;2.90;;;-6.10;97.90;;;;;;4885521;29;20135;-59
2021/12/26 06:41:12;;;;;;;4.50;2.90;;;-6.10;97.70;;;;;;4886617;29;20049;-56
2021/12/26 06:43:39;;;;;;;7.93;3.00;;;-6.10;97.60;;;;;;4882754;29;20458;-59
2021/12/26 06:46:05;;;;;;;4.68;3.10;;;-6.10;97.70;;;;;;4886916;29;20389;-57
2021/12/26 06:48:32;;;;;;;3.97;2.78;;;-6.10;97.50;;;;;;4885979;29;20051;-57
2021/12/26 06:50:58;;;;;;;5.35;3.40;;;-6.10;97.50;;;;;;4885591;29;20055;-59
2021/12/26 06:53:24;;;;;;;5.00;3.20;;;-6.10;97.60;;;;;;4886975;29;20047;-54
2021/12/26 06:55:50;;;;;;;5.10;3.20;;;-6.10;97.70;;;;;;4887116;29;20044;-59
2021/12/26 06:58:16;;;;;;;5.00;3.28;;;-6.10;97.70;;;;;;4886148;29;20129;-58
2021/12/26 07:00:43;;;;;;;4.43;3.00;;;-6.20;97.60;;;;;;4886148;29;20134;-57
2021/12/26 07:03:09;;;;;;;3.80;2.88;;;-6.10;97.60;;;;;;4856531;29;20071;-57
2021/12/26 07:05:36;;;;;;;4.35;2.90;;;-6.10;97.70;;;;;;4888219;29;20099;-57
2021/12/26 07:08:01;;;;;;;5.18;3.40;;;-6.20;97.60;;;;;;4885611;29;20067;-59
2021/12/26 07:10:27;;;;;;;4.85;3.15;;;-6.20;97.60;;;;;;4887041;29;20037;-56
2021/12/26 07:12:53;;;;;;;5.20;3.38;;;-6.20;97.60;;;;;;4885060;29;20139;-58
2021/12/26 07:15:19;;;;;;;5.53;3.53;;;-6.20;97.50;;;;;;4883353;29;20048;-58
2021/12/26 07:17:45;;;;;;;5.30;3.15;;;-6.20;97.40;;;;;;4884251;29;20104;-57
2021/12/26 07:20:16;;;;;;;5.00;3.22;;;-6.20;97.50;;;;;;4875592;29;20079;-56
2021/12/26 07:22:44;;;;;;;6.18;3.10;;;-6.20;97.30;;;;;;4882925;29;20191;-57
2021/12/26 07:25:10;;;;;;;5.35;3.50;;;-6.20;97.20;;;;;;4862040;29;20072;-59
2021/12/26 07:27:36;;;;;;;8.98;3.60;;;-6.20;97.40;;;;;;4883582;29;21744;-57
2021/12/26 07:30:04;;;;;;;6.53;3.72;;;-6.20;97.00;;;;;;4882633;29;20044;-59
2021/12/26 07:32:31;;;;;;;5.22;3.53;;;-6.10;97.20;;;;;;4884168;29;20056;-58
2021/12/26 07:35:00;;;;;;;4.70;3.30;;;-6.10;97.20;;;;;;4869997;29;20197;-58
2021/12/26 07:37:27;;;;;;;4.13;3.05;;;-6.20;97.30;;;;;;4886449;29;20064;-58
2021/12/26 07:39:53;;;;;;;6.63;3.70;;;-6.20;97.30;;;;;;4887100;29;20050;-58
2021/12/26 07:42:19;;;;;;;4.95;3.65;;;-6.20;97.40;;;;;;4873926;29;20067;-55
2021/12/26 07:44:45;;;;;;;6.53;3.40;;;-6.20;97.30;;;;;;4886450;29;20119;-56
2021/12/26 07:47:11;;;;;;;5.93;3.70;;;-6.20;97.30;;;;;;4887630;29;20449;-58
2021/12/26 07:49:37;;;;;;;5.60;3.40;;;-6.20;97.30;;;;;;4869009;29;20548;-58
2021/12/26 07:52:10;;;;;;;5.15;3.55;;;-6.20;97.20;;;;;;4886391;29;20063;-58
2021/12/26 07:54:36;;;;;;;7.30;3.95;;;-6.20;97.30;;;;;;4886987;29;20048;-57
2021/12/26 07:57:03;;;;;;;5.00;3.70;;;-6.20;97.20;;;;;;4884991;29;20405;-59
2021/12/26 07:59:28;;;;;;;5.25;3.90;;;-6.20;97.30;;;;;;4885383;29;20041;-57
2021/12/26 08:01:54;;;;;;;6.65;3.92;;;-6.20;97.30;;;;;;4870400;29;20113;-57
2021/12/26 08:04:20;;;;;;;6.95;3.92;;;-6.20;97.40;;;;;;4884984;29;20040;-59
2021/12/26 08:06:46;;;;;;;6.53;3.92;;;-6.20;97.40;;;;;;4872276;29;20090;-58
2021/12/26 08:09:12;;;;;;;6.03;4.05;;;-6.20;97.40;;;;;;4885860;29;20055;-59
2021/12/26 08:11:38;;;;;;;10.32;4.10;;;-6.20;97.30;;;;;;4884394;29;20700;-58
2021/12/26 08:14:04;;;;;;;5.22;3.83;;;-6.20;97.30;;;;;;4865520;29;20398;-59
2021/12/26 08:16:30;;;;;;;6.00;3.75;;;-6.20;97.30;;;;;;4884319;29;20091;-58
2021/12/26 08:18:56;;;;;;;7.10;4.20;;;-6.20;97.40;;;;;;4868576;29;20136;-57
2021/12/26 08:21:22;;;;;;;9.02;4.10;;;-6.20;97.40;;;;;;4886034;29;20054;-58
2021/12/26 08:23:48;;;;;;;7.85;4.45;;;-6.20;97.70;;;;;;4883985;29;20415;-57
2021/12/26 08:26:14;;;;;;;6.22;4.20;;;-6.10;97.60;;;;;;4883304;29;20052;-58
2021/12/26 08:28:39;;;;;;;7.95;4.60;;;-6.10;97.60;;;;;;4885413;29;20083;-53
2021/12/26 08:31:06;;;;;;;6.68;4.43;;;-6.10;97.60;;;;;;4867260;29;20048;-58
2021/12/26 08:33:31;;;;;;;7.45;4.68;;;-6.10;97.60;;;;;;4882150;29;20048;-57
2021/12/26 08:35:58;;;;;;;6.28;4.43;;;-6.10;97.60;;;;;;4884950;29;20052;-57
2021/12/26 08:38:25;;;;;;;8.60;4.43;;;-6.10;97.50;;;;;;4885373;29;20041;-58
2021/12/26 08:40:53;;;;;;;7.57;4.80;;;-6.10;97.40;;;;;;4884078;29;20073;-58
2021/12/26 08:43:19;;;;;;;6.57;4.70;;;-6.10;97.50;;;;;;4870611;29;20123;-59
2021/12/26 08:45:45;;;;;;;6.40;4.57;;;-6.10;97.50;;;;;;4887779;29;20044;-58
2021/12/26 08:48:11;;;;;;;8.07;5.13;;;-5.90;97.60;;;;;;4886717;29;20456;-58
2021/12/26 08:50:37;;;;;;;7.00;4.78;;;-6.10;97.60;;;;;;4884537;29;20164;-57
2021/12/26 08:53:04;;;;;;;7.10;5.07;;;-6.10;97.60;;;;;;4885278;29;20049;-56
2021/12/26 08:55:30;;;;;;;9.02;5.05;;;-6.00;97.50;;;;;;4885458;29;20496;-59
2021/12/26 08:57:56;;;;;;;8.35;5.03;;;-6.00;97.60;;;;;;4886284;29;20084;-59
2021/12/26 09:00:23;;;;;;;7.30;4.68;;;-6.00;97.40;;;;;;4883534;29;20052;-58
2021/12/26 09:02:50;;;;;;;7.95;4.93;;;-6.00;97.60;;;;;;4883276;29;20084;-58
2021/12/26 09:05:16;;;;;;;8.65;5.28;;;-6.00;97.20;;;;;;4881770;29;20049;-58
2021/12/26 09:07:42;;;;;;;9.15;5.40;;;-5.90;96.90;;;;;;4866754;29;20052;-59
2021/12/26 09:10:10;;;;;;;9.50;5.38;;;-5.90;96.80;;;;;;4885059;29;20055;-59
2021/12/26 09:12:36;;;;;;;8.32;4.75;;;-5.90;96.90;;;;;;4865075;29;20049;-58
2021/12/26 09:15:05;;;;;;;8.73;4.68;;;-5.90;97.10;;;;;;4884679;29;20076;-58
2021/12/26 09:17:30;;;;;;;7.47;4.47;;;-5.80;97.00;;;;;;4873334;29;20055;-59
2021/12/26 09:19:56;;;;;;;7.65;4.90;;;-5.80;96.80;;;;;;4866901;29;20052;-58
2021/12/26 09:22:22;;;;;;;7.30;4.60;;;-5.70;96.70;;;;;;4867016;29;20045;-57
2021/12/26 09:24:48;;;;;;;8.05;4.90;;;-5.70;96.80;;;;;;4885220;29;20059;-57
2021/12/26 09:27:15;;;;;;;6.53;4.72;;;-5.70;96.80;;;;;;4886095;29;20056;-58
2021/12/26 09:29:41;;;;;;;7.90;4.65;;;-5.60;96.90;;;;;;4870546;29;20057;-58
2021/12/26 09:32:07;;;;;;;7.60;4.60;;;-5.60;96.70;;;;;;4885787;29;20052;-56
2021/12/26 09:34:34;;;;;;;6.65;4.47;;;-5.60;96.80;;;;;;4880272;29;20130;-58
2021/12/26 09:37:03;;;;;;;5.68;4.00;;;-5.50;96.80;;;;;;4884272;29;20040;-58
2021/12/26 09:39:29;;;;;;;8.38;4.68;;;-5.50;96.80;;;;;;4884306;29;20127;-58
2021/12/26 09:41:55;;;;;;;7.65;4.45;;;-5.40;96.60;;;;;;4884560;29;20100;-58
2021/12/26 09:44:21;;;;;;;7.90;4.93;;;-5.40;96.80;;;;;;4883613;29;20044;-58
2021/12/26 09:46:47;;;;;;;5.25;4.28;;;-5.30;96.50;;;;;;4887580;29;20180;-57
2021/12/26 09:49:13;;;;;;;7.53;4.53;;;-5.30;96.50;;;;;;4884356;29;20052;-57
2021/12/26 09:51:39;;;;;;;6.65;4.15;;;-5.20;96.70;;;;;;4885458;29;20496;-58
2021/12/26 09:54:07;;;;;;;6.15;4.20;;;-5.20;96.80;;;;;;4883614;29;20109;-58
2021/12/26 09:56:33;;;;;;;12.00;4.97;;;-5.10;96.80;;;;;;4868559;29;20053;-58
2021/12/26 09:59:05;;;;;;;7.35;4.22;;;-5.10;97.00;;;;;;4884179;29;20052;-58
2021/12/26 10:01:40;;;;;;;6.75;4.72;;;-5.00;97.10;;;;;;4865013;29;20056;-57
2021/12/26 10:04:18;;;;;;;7.20;4.53;;;-4.90;97.10;;;;;;4881294;29;20548;-58
2021/12/26 10:06:44;;;;;;;6.43;4.57;;;-4.80;97.10;;;;;;4884384;29;20059;-58
2021/12/26 10:09:10;;;;;;;6.45;4.32;;;-4.70;97.00;;;;;;4871985;29;20464;-58
2021/12/26 10:11:42;;;;;;;9.38;4.70;;;-4.60;97.00;;;;;;4886076;29;20044;-58
2021/12/26 10:14:16;;;;;;;8.83;5.10;;;-4.50;97.10;;;;;;4855830;29;20056;-58
2021/12/26 10:16:52;;;;;;;9.80;4.60;;;-4.40;97.00;;;;;;4882208;29;20095;-59
2021/12/26 10:19:19;;;;;;;6.80;4.45;;;-4.20;96.70;;;;;;4884659;29;20049;-58
2021/12/26 10:21:49;;;;;;;6.95;4.63;;;-4.10;96.60;;;;;;4882064;29;20136;-58
2021/12/26 10:24:17;;;;;;;7.82;4.22;;;-3.90;96.40;;;;;;4884240;29;20055;-57
2021/12/26 10:26:51;;;;;;;7.15;4.80;;;-3.80;96.40;;;;;;4884762;29;20060;-59
2021/12/26 10:29:38;;;;;;;8.15;4.35;;;-3.70;96.30;;;;;;4882675;29;20045;-59
2021/12/26 10:32:04;;;;;;;6.68;4.40;;;-3.60;96.10;;;;;;4886078;29;20060;-59
2021/12/26 10:34:48;;;;;;;5.35;3.95;;;-3.40;96.20;;;;;;4886372;29;20372;-58
2021/12/26 10:37:22;;;;;;;8.15;4.53;;;-3.30;96.20;;;;;;4887231;29;20040;-60
2021/12/26 10:39:51;;;;;;;7.55;4.57;;;-3.10;96.00;;;;;;4875370;29;20127;-58
2021/12/26 10:42:20;;;;;;;6.43;4.40;;;-2.90;95.90;;;;;;4886575;29;20127;-58
2021/12/26 10:44:55;;;;;;;6.13;4.20;;;-2.90;96.00;;;;;;4870634;29;20051;-57
2021/12/26 10:47:24;;;;;;;5.90;4.10;;;-2.80;96.00;;;;;;4883157;29;20526;-56
2021/12/26 10:49:54;;;;;;;7.75;4.32;;;-2.70;95.70;;;;;;4886293;29;20067;-57
2021/12/26 10:52:25;;;;;;;5.68;4.22;;;-2.50;95.80;;;;;;4869964;29;20048;-58
2021/12/26 10:55:00;;;;;;;8.10;4.18;;;-2.40;95.80;;;;;;4887737;29;20477;-59
2021/12/26 10:57:30;;;;;;;7.07;4.60;;;-2.30;95.50;;;;;;4858200;29;20056;-58
2021/12/26 11:00:08;;;;;;;7.22;4.63;;;-2.20;95.20;;;;;;4869031;29;20041;-59
2021/12/26 11:02:35;;;;;;;5.15;4.05;;;-2.10;95.20;;;;;;4887021;29;20049;-57
2021/12/26 11:05:07;;;;;;;6.65;4.47;;;-2.10;94.70;;;;;;4886517;29;20095;-58
2021/12/26 11:07:49;;;;;;;6.70;4.50;;;-2.00;94.60;;;;;;4869079;29;20057;-60
2021/12/26 11:10:26;;;;;;;5.60;4.50;;;-2.00;94.50;;;;;;4886545;29;20056;-58
2021/12/26 11:12:55;;;;;;;7.45;4.50;;;-2.00;93.60;;;;;;4886768;29;20492;-59
2021/12/26 11:15:23;;;;;;;10.70;4.10;;;-1.90;94.00;;;;;;4874818;29;20057;-56
2021/12/26 11:17:54;;;;;;;5.35;4.13;;;-2.00;94.10;;;;;;4868741;29;20153;-57
2021/12/26 11:20:27;;;;;;;6.20;4.47;;;-2.00;94.00;;;;;;4886693;29;20044;-59
2021/12/26 11:22:53;;;;;;;5.63;4.20;;;-2.00;94.40;;;;;;4886307;29;20762;-58
2021/12/26 11:25:21;;;;;;;6.28;3.88;;;-2.10;94.30;;;;;;4886838;29;20132;-59
2021/12/26 11:27:47;;;;;;;7.45;4.38;;;-2.10;94.40;;;;;;4867449;29;20057;-58
2021/12/26 11:30:12;;;;;;;7.28;4.13;;;-2.20;94.40;;;;;;4887678;29;20084;-60
2021/12/26 11:32:39;;;;;;;8.25;4.28;;;-2.20;94.60;;;;;;4867924;29;20492;-58
2021/12/26 11:35:07;;;;;;;8.38;4.45;;;-2.20;94.00;;;;;;4870400;29;20052;-57
2021/12/26 11:37:35;;;;;;;7.13;4.75;;;-2.30;94.00;;;;;;4885510;29;21245;-58
2021/12/26 11:40:03;;;;;;;5.68;4.25;;;-2.30;94.10;;;;;;4886190;29;20041;-58
2021/12/26 11:42:43;;;;;;;7.07;4.32;;;-2.30;94.10;;;;;;4883576;29;20048;-56
2021/12/26 11:45:26;;;;;;;8.77;4.35;;;-2.30;94.00;;;;;;4887983;29;20048;-58
2021/12/26 11:48:42;;;;;;;8.50;4.75;;;-2.30;93.90;;;;;;4882422;29;20059;-59
2021/12/26 11:51:20;;;;;;;9.93;6.50;;;-2.30;94.00;;;;;;4869787;29;20056;-56
2021/12/26 11:54:28;;;;;;;8.05;5.18;;;-2.30;94.50;;;;;;4885661;29;20060;-59
2021/12/26 11:57:00;;;;;;;7.68;4.72;;;-2.30;94.60;;;;;;4848131;29;20042;-59
2021/12/26 11:59:34;;;;;;;7.78;4.85;;;-2.30;94.50;;;;;;4885400;29;20055;-59
2021/12/26 12:02:00;;;;;;;8.52;5.13;;;-2.20;94.60;;;;;;4867269;29;20824;-59
2021/12/26 12:04:26;;;;;;;9.07;4.65;;;-2.20;94.40;;;;;;4882335;29;20056;-58
2021/12/26 12:06:55;;;;;;;8.40;4.72;;;-2.20;94.20;;;;;;4884768;29;20055;-59
2021/12/26 12:09:25;;;;;;;11.25;4.75;;;-2.20;94.40;;;;;;4884800;29;20119;-58
2021/12/26 12:12:02;;;;;;;7.82;4.38;;;-2.10;94.70;;;;;;4887812;29;20548;-59
2021/12/26 12:14:54;;;;;;;8.07;4.82;;;-2.10;94.70;;;;;;4885914;29;20069;-59
2021/12/26 12:17:29;;;;;;;7.13;4.43;;;-2.10;94.80;;;;;;4885827;29;20057;-59
2021/12/26 12:20:21;;;;;;;7.60;5.13;;;-2.10;94.80;;;;;;4868559;29;20539;-58
2021/12/26 12:23:08;;;;;;;9.00;4.63;;;-2.10;94.90;;;;;;4883956;29;20053;-57
2021/12/26 12:25:34;;;;;;;6.90;4.50;;;-2.00;94.80;;;;;;4869035;29;20152;-59
2021/12/26 12:28:13;;;;;;;7.38;4.68;;;-2.00;95.10;;;;;;4887452;29;20135;-58
2021/12/26 12:30:42;;;;;;;9.48;4.07;;;-2.00;95.00;;;;;;4885972;29;20045;-59
2021/12/26 12:33:25;;;;;;;7.03;4.35;;;-2.00;95.20;;;;;;4883813;29;20472;-59
2021/12/26 12:36:01;;;;;;;6.63;4.70;;;-1.90;95.10;;;;;;4870893;29;20050;-59
2021/12/26 12:38:38;;;;;;;7.88;4.82;;;-1.90;95.20;;;;;;4886402;29;20128;-59
2021/12/26 12:41:05;;;;;;;6.35;4.68;;;-1.90;95.30;;;;;;4883698;29;20049;-58
2021/12/26 12:43:50;;;;;;;6.03;4.45;;;-1.90;95.40;;;;;;4866480;29;20037;-58
2021/12/26 12:46:15;;;;;;;8.10;5.10;;;-1.80;95.70;;;;;;4883976;29;20704;-59
2021/12/26 12:48:45;;;;;;;7.63;4.40;;;-1.80;95.60;;;;;;4873139;29;20184;-58
2021/12/26 12:51:18;;;;;;;6.38;4.40;;;-1.70;95.50;;;;;;4882822;29;20052;-59
2021/12/26 12:53:47;;;;;;;7.85;4.30;;;-1.70;95.30;;;;;;4869403;29;20263;-59
2021/12/26 12:56:34;;;;;;;10.05;4.65;;;-1.60;95.40;;;;;;4883557;29;20559;-58